Time,TemperatureF,DewpointF,PressureIn,WindDirection,WindDirectionDegrees,WindSpeedMPH,WindSpeedGustMPH,Humidity,HourlyPrecipIn,Conditions,Clouds,dailyrainin,SolarRadiationWatts/m^2,SoftwareType,DateUTC
2013-01-14 00:21:00,34.1,28.0,30.21,WNW,302,1.0,2.0,79,0.00,,,0.00,0,weatherlink.com 1.10,2013-01-14 08:21:00,
2013-01-14 00:36:00,35.2,30.0,30.21,WNW,302,2.0,4.0,80,0.00,,,0.00,0,weatherlink.com 1.10,2013-01-14 08:36:00,
2013-01-14 00:51:00,34.1,28.0,30.22,WNW,302,0.0,3.0,79,0.00,,,0.00,0,weatherlink.com 1.10,2013-01-14 08:51:00,
2013-01-14 01:06:00,33.9,28.0,30.23,WNW,300,3.0,4.0,80,0.00,,,0.00,0,weatherlink.com 1.10,2013-01-14 09:06:00,
2013-01-14 01:21:00,34.2,29.0,30.24,WNW,300,3.0,4.0,81,0.00,,,0.00,0,weatherlink.com 1.10,2013-01-14 09:21:00,
2013-01-14 01:36:00,34.2,29.0,30.24,WNW,300,0.0,4.0,81,0.00,,,0.00,0,weatherlink.com 1.10,2013-01-14 09:36:00,
2013-01-14 01:51:00,33.8,29.0,30.25,WNW,300,1.0,3.0,81,0.00,,,0.00,0,weatherlink.com 1.10,2013-01-14 09:51:00,
2013-01-14 02:06:00,30.9,25.0,30.25,WNW,301,1.0,2.0,80,0.00,,,0.00,0,weatherlink.com 1.10,2013-01-14 10:06:00,
2013-01-14 02:22:00,30.3,25.0,30.25,WNW,301,0.0,1.0,82,0.00,,,0.00,0,weatherlink.com 1.10,2013-01-14 10:22:00,
2013-01-14 02:37:00,30.4,26.0,30.26,WNW,300,1.0,2.0,83,0.00,,,0.00,0,weatherlink.com 1.10,2013-01-14 10:37:00,
2013-01-14 02:52:00,30.1,26.0,30.26,WNW,301,1.0,1.0,84,0.00,,,0.00,0,weatherlink.com 1.10,2013-01-14 10:52:00,
2013-01-14 03:07:00,31.1,27.0,30.27,WNW,301,0.0,1.0,85,0.00,,,0.00,0,weatherlink.com 1.10,2013-01-14 11:07:00,
2013-01-14 03:22:00,30.6,27.0,30.27,WNW,300,1.0,1.0,85,0.00,,,0.00,0,weatherlink.com 1.10,2013-01-14 11:22:00,
2013-01-14 03:37:00,29.1,25.0,30.27,WNW,300,0.0,0.0,86,0.00,,,0.00,0,weatherlink.com 1.10,2013-01-14 11:37:00,
2013-01-14 03:52:00,28.9,25.0,30.27,WNW,300,0.0,0.0,86,0.00,,,0.00,0,weatherlink.com 1.10,2013-01-14 11:52:00,
2013-01-14 04:08:00,27.4,24.0,30.27,NNW,347,2.0,3.0,86,0.00,,,0.00,0,weatherlink.com 1.10,2013-01-14 12:08:00,
2013-01-14 04:22:00,26.6,23.0,30.27,North,351,1.0,3.0,87,0.00,,,0.00,0,weatherlink.com 1.10,2013-01-14 12:22:00,
2013-01-14 04:37:00,26.7,24.0,30.29,North,350,2.0,3.0,88,0.00,,,0.00,0,weatherlink.com 1.10,2013-01-14 12:37:00,
2013-01-14 04:53:00,27.1,24.0,30.28,North,351,0.0,3.0,88,0.00,,,0.00,0,weatherlink.com 1.10,2013-01-14 12:53:00,
2013-01-14 05:08:00,27.1,24.0,30.29,North,351,0.0,1.0,88,0.00,,,0.00,0,weatherlink.com 1.10,2013-01-14 13:08:00,
2013-01-14 05:23:00,28.4,26.0,30.29,North,350,0.0,2.0,89,0.00,,,0.00,0,weatherlink.com 1.10,2013-01-14 13:23:00,
2013-01-14 05:38:00,27.7,25.0,30.30,North,351,0.0,3.0,88,0.00,,,0.00,0,weatherlink.com 1.10,2013-01-14 13:38:00,
2013-01-14 05:53:00,27.6,25.0,30.30,North,351,0.0,1.0,89,0.00,,,0.00,0,weatherlink.com 1.10,2013-01-14 13:53:00,
2013-01-14 06:08:00,28.1,25.0,30.31,North,351,1.0,1.0,89,0.00,,,0.00,0,weatherlink.com 1.10,2013-01-14 14:08:00,
2013-01-14 06:23:00,28.4,26.0,30.32,North,350,0.0,0.0,89,0.00,,,0.00,0,weatherlink.com 1.10,2013-01-14 14:23:00,
2013-01-14 06:38:00,28.0,25.0,30.32,North,351,0.0,0.0,89,0.00,,,0.00,0,weatherlink.com 1.10,2013-01-14 14:38:00,
2013-01-14 06:53:00,27.1,24.0,30.33,North,351,0.0,0.0,88,0.00,,,0.00,0,weatherlink.com 1.10,2013-01-14 14:53:00,
2013-01-14 07:10:00,26.2,23.0,30.35,North,350,1.0,2.0,89,0.00,,,0.00,0,weatherlink.com 1.10,2013-01-14 15:10:00,
2013-01-14 07:24:00,25.7,23.0,30.34,North,351,0.0,1.0,89,0.00,,,0.00,7,weatherlink.com 1.10,2013-01-14 15:24:00,
2013-01-14 07:40:00,26.7,24.0,30.35,North,351,0.0,1.0,89,0.00,,,0.00,16,weatherlink.com 1.10,2013-01-14 15:40:00,
2013-01-14 07:55:00,28.6,26.0,30.36,North,350,1.0,3.0,90,0.00,,,0.00,39,weatherlink.com 1.10,2013-01-14 15:55:00,
2013-01-14 08:09:00,27.7,25.0,30.36,North,351,0.0,3.0,90,0.00,,,0.00,74,weatherlink.com 1.10,2013-01-14 16:09:00,
2013-01-14 08:26:00,29.2,27.0,30.37,North,351,1.0,1.0,90,0.00,,,0.00,120,weatherlink.com 1.10,2013-01-14 16:26:00,
2013-01-14 08:41:00,29.9,27.0,30.38,North,351,1.0,2.0,89,0.00,,,0.00,169,weatherlink.com 1.10,2013-01-14 16:41:00,
2013-01-14 08:55:00,30.4,27.0,30.38,North,350,0.0,3.0,88,0.00,,,0.00,211,weatherlink.com 1.10,2013-01-14 16:55:00,
2013-01-14 09:12:00,31.5,28.0,30.38,North,350,3.0,4.0,88,0.00,,,0.00,251,weatherlink.com 1.10,2013-01-14 17:12:00,
2013-01-14 09:26:00,32.1,29.0,30.39,North,350,3.0,3.0,87,0.00,,,0.00,285,weatherlink.com 1.10,2013-01-14 17:26:00,
2013-01-14 09:41:00,33.4,30.0,30.39,North,351,0.0,3.0,86,0.00,,,0.00,320,weatherlink.com 1.10,2013-01-14 17:41:00,
2013-01-14 09:57:00,34.4,30.0,30.39,North,351,2.0,3.0,84,0.00,,,0.00,360,weatherlink.com 1.10,2013-01-14 17:57:00,
2013-01-14 10:11:00,35.2,30.0,30.40,North,351,1.0,3.0,82,0.00,,,0.00,394,weatherlink.com 1.10,2013-01-14 18:11:00,
2013-01-14 10:27:00,36.1,31.0,30.40,NW,315,3.0,5.0,80,0.00,,,0.00,425,weatherlink.com 1.10,2013-01-14 18:27:00,
2013-01-14 10:42:00,37.2,31.0,30.40,NW,311,2.0,6.0,78,0.00,,,0.00,450,weatherlink.com 1.10,2013-01-14 18:42:00,
2013-01-14 10:56:00,38.0,31.0,30.40,NW,310,1.0,5.0,76,0.00,,,0.00,473,weatherlink.com 1.10,2013-01-14 18:56:00,
2013-01-14 11:13:00,39.0,31.0,30.39,WNW,300,1.0,4.0,73,0.00,,,0.00,496,weatherlink.com 1.10,2013-01-14 19:13:00,
2013-01-14 11:27:00,39.9,32.0,30.38,WNW,300,2.0,3.0,72,0.00,,,0.00,510,weatherlink.com 1.10,2013-01-14 19:27:00,
2013-01-14 11:43:00,40.7,32.0,30.37,WNW,300,1.0,5.0,70,0.00,,,0.00,522,weatherlink.com 1.10,2013-01-14 19:43:00,
2013-01-14 11:58:00,41.7,32.0,30.36,WNW,286,2.0,4.0,68,0.00,,,0.00,531,weatherlink.com 1.10,2013-01-14 19:58:00,
2013-01-14 12:13:00,42.6,32.0,30.36,WNW,286,2.0,4.0,67,0.00,,,0.00,536,weatherlink.com 1.10,2013-01-14 20:13:00,
2013-01-14 12:28:00,43.3,32.0,30.34,WNW,286,2.0,4.0,65,0.00,,,0.00,536,weatherlink.com 1.10,2013-01-14 20:28:00,
2013-01-14 12:44:00,43.6,32.0,30.34,WNW,286,0.0,2.0,63,0.00,,,0.00,533,weatherlink.com 1.10,2013-01-14 20:44:00,
2013-01-14 12:58:00,44.2,32.0,30.34,WNW,286,1.0,3.0,63,0.00,,,0.00,527,weatherlink.com 1.10,2013-01-14 20:58:00,
2013-01-14 13:14:00,45.3,32.0,30.34,West,281,2.0,5.0,61,0.00,,,0.00,508,weatherlink.com 1.10,2013-01-14 21:14:00,
2013-01-14 13:29:00,45.0,32.0,30.35,NW,307,2.0,6.0,61,0.00,,,0.00,494,weatherlink.com 1.10,2013-01-14 21:29:00,
2013-01-14 13:43:00,45.5,33.0,30.35,NNW,341,0.0,8.0,61,0.00,,,0.00,476,weatherlink.com 1.10,2013-01-14 21:43:00,
2013-01-14 13:58:00,45.7,33.0,30.35,North,360,1.0,8.0,61,0.00,,,0.00,454,weatherlink.com 1.10,2013-01-14 21:58:00,
2013-01-14 14:13:00,46.1,34.0,30.35,North,349,3.0,7.0,62,0.00,,,0.00,427,weatherlink.com 1.10,2013-01-14 22:13:00,
2013-01-14 14:29:00,46.5,34.0,30.35,NW,325,2.0,5.0,61,0.00,,,0.00,397,weatherlink.com 1.10,2013-01-14 22:29:00,
2013-01-14 14:44:00,46.6,33.0,30.36,North,5,2.0,7.0,59,0.00,,,0.00,364,weatherlink.com 1.10,2013-01-14 22:44:00,
2013-01-14 14:59:00,47.5,34.0,30.36,West,276,5.0,8.0,59,0.00,,,0.00,332,weatherlink.com 1.10,2013-01-14 22:59:00,
2013-01-14 15:14:00,48.2,35.0,30.36,WNW,297,2.0,5.0,60,0.00,,,0.00,295,weatherlink.com 1.10,2013-01-14 23:14:00,
2013-01-14 15:29:00,48.1,34.0,30.36,NW,309,4.0,6.0,58,0.00,,,0.00,264,weatherlink.com 1.10,2013-01-14 23:29:00,
2013-01-14 15:44:00,48.0,32.0,30.36,NW,316,0.0,4.0,54,0.00,,,0.00,185,weatherlink.com 1.10,2013-01-14 23:44:00,
2013-01-14 15:59:00,48.2,33.0,30.35,NW,310,3.0,6.0,55,0.00,,,0.00,120,weatherlink.com 1.10,2013-01-14 23:59:00,
2013-01-14 16:14:00,48.5,32.0,30.35,WNW,302,2.0,4.0,54,0.00,,,0.00,88,weatherlink.com 1.10,2013-01-15 00:14:00,
2013-01-14 16:29:00,48.3,34.0,30.35,WNW,290,3.0,5.0,59,0.00,,,0.00,46,weatherlink.com 1.10,2013-01-15 00:29:00,
2013-01-14 16:44:00,47.9,33.0,30.34,WNW,284,3.0,5.0,56,0.00,,,0.00,25,weatherlink.com 1.10,2013-01-15 00:44:00,
2013-01-14 16:59:00,47.5,34.0,30.35,WNW,284,4.0,5.0,59,0.00,,,0.00,11,weatherlink.com 1.10,2013-01-15 00:59:00,
2013-01-14 17:14:00,46.6,34.0,30.36,WNW,282,5.0,5.0,63,0.00,,,0.00,0,weatherlink.com 1.10,2013-01-15 01:14:00,
2013-01-14 17:29:00,45.9,35.0,30.36,WNW,286,1.0,3.0,65,0.00,,,0.00,0,weatherlink.com 1.10,2013-01-15 01:29:00,
2013-01-14 17:44:00,44.8,33.0,30.36,WNW,287,0.0,2.0,64,0.00,,,0.00,0,weatherlink.com 1.10,2013-01-15 01:44:00,
2013-01-14 17:59:00,43.8,32.0,30.36,WNW,286,0.0,1.0,63,0.00,,,0.00,0,weatherlink.com 1.10,2013-01-15 01:59:00,
2013-01-14 18:14:00,43.2,32.0,30.37,WNW,286,0.0,0.0,64,0.00,,,0.00,0,weatherlink.com 1.10,2013-01-15 02:14:00,
2013-01-14 18:29:00,42.2,31.0,30.37,WNW,286,0.0,0.0,66,0.00,,,0.00,0,weatherlink.com 1.10,2013-01-15 02:29:00,
2013-01-14 18:44:00,42.1,31.0,30.36,WNW,286,0.0,0.0,66,0.00,,,0.00,0,weatherlink.com 1.10,2013-01-15 02:44:00,
2013-01-14 18:59:00,41.6,31.0,30.37,WNW,286,0.0,0.0,67,0.00,,,0.00,0,weatherlink.com 1.10,2013-01-15 02:59:00,
2013-01-14 19:14:00,40.3,31.0,30.38,WNW,286,0.0,0.0,70,0.00,,,0.00,0,weatherlink.com 1.10,2013-01-15 03:14:00,
2013-01-14 19:29:00,38.5,31.0,30.37,WNW,286,0.0,1.0,73,0.00,,,0.00,0,weatherlink.com 1.10,2013-01-15 03:29:00,
2013-01-14 19:44:00,38.4,31.0,30.38,WNW,286,0.0,2.0,74,0.00,,,0.00,0,weatherlink.com 1.10,2013-01-15 03:44:00,
2013-01-14 19:59:00,37.6,31.0,30.38,WNW,286,0.0,0.0,76,0.00,,,0.00,0,weatherlink.com 1.10,2013-01-15 03:59:00,
2013-01-14 20:14:00,36.4,30.0,30.38,WNW,286,1.0,1.0,77,0.00,,,0.00,0,weatherlink.com 1.10,2013-01-15 04:14:00,
2013-01-14 20:29:00,35.6,30.0,30.37,WNW,286,0.0,2.0,80,0.00,,,0.00,0,weatherlink.com 1.10,2013-01-15 04:29:00,
2013-01-14 20:44:00,35.4,30.0,30.37,WNW,286,0.0,0.0,81,0.00,,,0.00,0,weatherlink.com 1.10,2013-01-15 04:44:00,
2013-01-14 20:59:00,34.3,29.0,30.38,WNW,286,2.0,3.0,82,0.00,,,0.00,0,weatherlink.com 1.10,2013-01-15 04:59:00,
2013-01-14 21:14:00,35.0,30.0,30.38,WNW,286,0.0,2.0,83,0.00,,,0.00,0,weatherlink.com 1.10,2013-01-15 05:14:00,
2013-01-14 21:29:00,34.1,29.0,30.38,WNW,286,1.0,3.0,82,0.00,,,0.00,0,weatherlink.com 1.10,2013-01-15 05:29:00,
2013-01-14 21:44:00,33.8,30.0,30.39,WNW,286,1.0,3.0,84,0.00,,,0.00,0,weatherlink.com 1.10,2013-01-15 05:44:00,
2013-01-14 21:59:00,34.6,30.0,30.39,WNW,290,0.0,3.0,84,0.00,,,0.00,0,weatherlink.com 1.10,2013-01-15 05:59:00,
2013-01-14 22:14:00,34.9,31.0,30.38,WNW,288,1.0,2.0,84,0.00,,,0.00,0,weatherlink.com 1.10,2013-01-15 06:14:00,
2013-01-14 22:29:00,35.4,31.0,30.39,WNW,289,2.0,2.0,84,0.00,,,0.00,0,weatherlink.com 1.10,2013-01-15 06:29:00,
2013-01-14 22:44:00,35.5,31.0,30.39,WNW,289,0.0,2.0,83,0.00,,,0.00,0,weatherlink.com 1.10,2013-01-15 06:44:00,
2013-01-14 22:59:00,35.4,31.0,30.39,WNW,289,0.0,0.0,83,0.00,,,0.00,0,weatherlink.com 1.10,2013-01-15 06:59:00,
2013-01-14 23:14:00,35.2,31.0,30.39,WNW,288,0.0,0.0,84,0.00,,,0.00,0,weatherlink.com 1.10,2013-01-15 07:14:00,
2013-01-14 23:29:00,34.7,30.0,30.40,WNW,288,0.0,2.0,84,0.00,,,0.00,0,weatherlink.com 1.10,2013-01-15 07:29:00,
2013-01-14 23:44:00,33.5,30.0,30.40,WNW,289,1.0,1.0,85,0.00,,,0.00,0,weatherlink.com 1.10,2013-01-15 07:44:00,
2013-01-14 23:59:00,33.5,30.0,30.40,WNW,288,0.0,2.0,86,0.00,,,0.00,0,weatherlink.com 1.10,2013-01-15 07:59:00,